Time;durP1;ratioP1;P1;durP2;ratioP2;P2;SDS_P1;SDS_P2;PMS_P1;PMS_P2;Temp;Humidity;BMP_temperature;BMP_pressure;BME280_temperature;BME280_humidity;BME280_pressure;Samples;Min_cycle;Max_cycle;Signal;HPM_P1;HPM_P2
2022/01/08 00:01:59;;;;;;;0.10;0.10;;;1.90;99.90;230.40;228845.00;;;;5108427;28;20215;-72
2022/01/08 00:04:27;;;;;;;0.10;0.10;;;1.90;99.90;230.40;228845.00;;;;5111067;28;20205;-72
2022/01/08 00:06:56;;;;;;;0.10;0.10;;;2.00;99.90;230.40;228845.00;;;;5111152;28;20204;-71
2022/01/08 00:09:24;;;;;;;0.20;0.20;;;1.90;99.90;230.40;228845.00;;;;5112202;28;20220;-74
2022/01/08 00:11:52;;;;;;;0.10;0.10;;;1.90;99.90;230.40;228845.00;;;;5112729;28;20281;-72
2022/01/08 00:14:21;;;;;;;0.10;0.10;;;2.00;99.90;230.40;228845.00;;;;5112315;28;20223;-71
2022/01/08 00:16:51;;;;;;;0.10;0.10;;;2.00;99.90;230.40;228845.00;;;;5106530;28;20200;-72
2022/01/08 00:19:19;;;;;;;0.10;0.10;;;2.00;99.90;230.40;228845.00;;;;5110817;28;20257;-73
2022/01/08 00:21:47;;;;;;;0.10;0.10;;;2.00;99.90;230.40;228845.00;;;;5111193;28;20220;-70
2022/01/08 00:24:15;;;;;;;0.10;0.10;;;2.00;99.90;230.40;228845.00;;;;5108869;28;20200;-70
2022/01/08 00:26:43;;;;;;;0.10;0.10;;;2.10;99.90;230.40;228845.00;;;;5110601;28;20591;-71
2022/01/08 00:29:11;;;;;;;0.10;0.10;;;2.10;99.90;230.40;228845.00;;;;5110176;28;20269;-73
2022/01/08 00:31:41;;;;;;;0.10;0.10;;;2.00;99.90;230.40;228845.00;;;;5110359;28;20674;-74
2022/01/08 00:34:10;;;;;;;0.10;0.10;;;2.00;99.90;230.40;228845.00;;;;5111014;28;20667;-74
2022/01/08 00:36:39;;;;;;;0.10;0.10;;;2.10;99.90;230.40;228845.00;;;;5111569;28;20214;-72
2022/01/08 00:39:08;;;;;;;0.10;0.10;;;2.10;99.90;230.40;228845.00;;;;5110745;28;20188;-72
2022/01/08 00:41:36;;;;;;;0.10;0.10;;;2.10;99.90;230.40;228845.00;;;;5111551;28;20223;-74
2022/01/08 00:44:05;;;;;;;0.10;0.10;;;2.10;99.90;230.40;228845.00;;;;5108396;28;20246;-74
2022/01/08 00:46:34;;;;;;;0.10;0.10;;;2.20;99.90;230.40;228845.00;;;;5111641;28;20660;-72
2022/01/08 00:49:02;;;;;;;0.10;0.10;;;2.20;99.90;230.40;228845.00;;;;5109103;28;20209;-71
2022/01/08 00:51:32;;;;;;;0.10;0.10;;;2.20;99.90;230.40;228845.00;;;;5111561;28;20336;-71
2022/01/08 00:54:00;;;;;;;0.10;0.10;;;2.20;99.90;230.40;228845.00;;;;5111481;28;20287;-71
2022/01/08 00:56:28;;;;;;;0.10;0.10;;;2.20;99.90;230.40;228845.00;;;;5111669;28;20237;-74
2022/01/08 00:58:55;;;;;;;0.10;0.10;;;2.20;99.90;230.40;228845.00;;;;5111266;28;20674;-73
2022/01/08 01:01:23;;;;;;;0.10;0.10;;;2.20;99.90;230.40;228845.00;;;;5109240;28;20679;-72
2022/01/08 01:03:51;;;;;;;0.10;0.10;;;2.20;99.90;230.40;228845.00;;;;5110882;28;20192;-73
2022/01/08 01:06:19;;;;;;;0.10;0.10;;;2.30;99.90;230.40;228845.00;;;;5111515;28;20196;-74
2022/01/08 01:08:49;;;;;;;0.10;0.10;;;2.20;99.90;230.40;228845.00;;;;5109225;28;20763;-75
2022/01/08 01:11:17;;;;;;;0.10;0.10;;;2.30;99.90;230.40;228845.00;;;;5110690;28;20204;-70
2022/01/08 01:13:45;;;;;;;0.10;0.10;;;2.30;99.90;230.40;228845.00;;;;5112867;27;20192;-70
2022/01/08 01:16:13;;;;;;;0.10;0.10;;;2.30;99.90;230.40;228845.00;;;;5111919;28;20250;-71
2022/01/08 01:18:41;;;;;;;0.10;0.10;;;2.30;99.90;230.40;228845.00;;;;5110242;28;20197;-72
2022/01/08 01:21:09;;;;;;;0.10;0.10;;;2.30;99.90;230.40;228845.00;;;;5110089;28;20188;-71
2022/01/08 01:23:41;;;;;;;0.20;0.20;;;2.30;99.90;230.40;228845.00;;;;5109737;28;20196;-71
2022/01/08 01:26:15;;;;;;;0.10;0.10;;;2.30;99.90;230.40;228845.00;;;;5109966;28;20246;-70
2022/01/08 01:28:49;;;;;;;0.10;0.10;;;2.30;99.90;230.40;228845.00;;;;5110066;28;20218;-73
2022/01/08 01:47:59;;;;;;;0.10;0.10;;;2.30;99.90;230.40;228845.00;;;;5086572;28;20281;-73
2022/01/08 01:50:28;;;;;;;0.10;0.10;;;2.20;99.90;230.40;228845.00;;;;5108946;28;21415;-71
2022/01/08 01:52:56;;;;;;;0.10;0.10;;;2.20;99.90;230.40;228845.00;;;;5109328;28;20223;-72
2022/01/08 01:55:24;;;;;;;0.10;0.10;;;2.20;99.90;230.40;228845.00;;;;5107768;28;20189;-72
2022/01/08 01:57:54;;;;;;;0.10;0.10;;;2.20;99.90;230.40;228845.00;;;;5108836;28;20193;-72
2022/01/08 02:00:22;;;;;;;0.10;0.10;;;2.20;99.90;230.40;228845.00;;;;5109661;28;20245;-72
2022/01/08 02:02:50;;;;;;;0.10;0.10;;;2.20;99.90;230.40;228845.00;;;;5109219;28;20211;-75
2022/01/08 02:05:19;;;;;;;0.10;0.10;;;2.20;99.90;230.40;228845.00;;;;5109012;28;20192;-75
2022/01/08 02:07:47;;;;;;;0.10;0.10;;;2.20;99.90;230.40;228845.00;;;;5109700;28;20552;-75
2022/01/08 02:10:15;;;;;;;0.10;0.10;;;2.20;99.90;230.40;228845.00;;;;5108386;28;20285;-75
2022/01/08 02:12:43;;;;;;;0.10;0.10;;;2.20;99.90;230.40;228845.00;;;;5110016;28;20261;-73
2022/01/08 02:15:12;;;;;;;0.10;0.10;;;2.20;99.90;230.40;228845.00;;;;5109744;28;20728;-73
2022/01/08 02:17:40;;;;;;;0.10;0.10;;;2.20;99.90;230.40;228845.00;;;;5107078;28;20189;-73
2022/01/08 02:20:11;;;;;;;0.10;0.10;;;2.20;99.90;230.40;228845.00;;;;5108276;28;20203;-73
2022/01/08 02:22:39;;;;;;;0.10;0.10;;;2.20;99.90;230.40;228845.00;;;;5108754;28;20216;-73
2022/01/08 02:25:08;;;;;;;0.10;0.10;;;2.10;99.90;230.40;228845.00;;;;5108240;28;20208;-73
2022/01/08 02:27:36;;;;;;;0.10;0.10;;;2.20;99.90;230.40;228845.00;;;;5106771;28;20196;-73
2022/01/08 02:30:06;;;;;;;0.10;0.10;;;2.10;99.90;230.40;228845.00;;;;5108062;28;20633;-73
2022/01/08 02:32:35;;;;;;;0.10;0.10;;;2.10;99.90;230.40;228845.00;;;;5108492;28;20289;-73
2022/01/08 02:35:04;;;;;;;0.10;0.10;;;2.10;99.90;230.40;228845.00;;;;5106170;28;20238;-72
2022/01/08 02:37:34;;;;;;;0.10;0.10;;;2.10;99.90;230.40;228845.00;;;;5108864;28;20208;-73
2022/01/08 02:40:04;;;;;;;0.10;0.10;;;2.10;99.90;230.40;228845.00;;;;5107271;28;20212;-75
2022/01/08 02:42:39;;;;;;;0.10;0.10;;;2.10;99.90;230.40;228845.00;;;;5113156;28;20265;-72
2022/01/08 02:45:09;;;;;;;0.10;0.10;;;2.10;99.90;230.40;228845.00;;;;5111610;28;20204;-72
2022/01/08 02:47:37;;;;;;;0.10;0.10;;;2.10;99.90;230.40;228845.00;;;;5112826;28;20201;-72
2022/01/08 02:50:06;;;;;;;0.10;0.10;;;2.10;99.90;230.40;228845.00;;;;5112580;28;20277;-73
2022/01/08 02:52:40;;;;;;;0.10;0.10;;;2.10;99.90;230.40;228845.00;;;;5111594;28;20226;-74
2022/01/08 02:55:09;;;;;;;0.10;0.10;;;2.20;99.90;230.40;228845.00;;;;5111348;28;20200;-72
2022/01/08 02:57:38;;;;;;;0.20;0.20;;;2.20;99.90;230.40;228845.00;;;;5111549;28;20266;-73
2022/01/08 03:00:09;;;;;;;0.10;0.10;;;2.10;99.90;230.40;228845.00;;;;5112759;28;20204;-72
2022/01/08 03:02:42;;;;;;;0.10;0.10;;;2.20;99.90;230.40;228845.00;;;;5111943;28;20220;-72
2022/01/08 03:05:11;;;;;;;0.10;0.10;;;2.10;99.90;230.40;228845.00;;;;5112595;28;20230;-72
2022/01/08 03:07:42;;;;;;;0.10;0.10;;;2.10;99.90;230.40;228845.00;;;;5112299;28;20682;-72
2022/01/08 03:10:13;;;;;;;0.10;0.10;;;2.10;99.90;230.40;228845.00;;;;5112867;28;20220;-74
2022/01/08 03:12:41;;;;;;;0.10;0.10;;;2.10;99.90;230.40;228845.00;;;;5112387;28;20201;-73
2022/01/08 03:15:12;;;;;;;0.10;0.10;;;2.10;99.90;230.40;228845.00;;;;5112616;28;20230;-72
2022/01/08 03:17:42;;;;;;;0.10;0.10;;;2.10;99.90;230.40;228845.00;;;;5112380;28;20193;-73
2022/01/08 03:20:13;;;;;;;0.10;0.10;;;2.10;99.90;230.40;228845.00;;;;5111017;28;20261;-73
2022/01/08 03:22:46;;;;;;;0.10;0.10;;;2.10;99.90;230.40;228845.00;;;;5108443;27;20276;-73
2022/01/08 03:25:16;;;;;;;0.10;0.10;;;2.10;99.90;230.40;228845.00;;;;5112030;28;20609;-73
2022/01/08 03:27:48;;;;;;;0.10;0.10;;;2.20;99.90;230.40;228845.00;;;;5111347;28;20265;-72
2022/01/08 03:30:16;;;;;;;0.10;0.10;;;2.20;99.90;230.40;228845.00;;;;5110797;28;20691;-73
2022/01/08 03:32:44;;;;;;;0.10;0.10;;;2.20;99.90;230.40;228845.00;;;;5112172;28;20213;-72
2022/01/08 03:35:12;;;;;;;0.10;0.10;;;2.20;99.90;230.40;228845.00;;;;5111923;28;20192;-72
2022/01/08 03:37:41;;;;;;;0.10;0.10;;;2.20;99.90;230.40;228845.00;;;;5111654;28;20192;-73
2022/01/08 03:40:10;;;;;;;0.10;0.10;;;2.20;99.90;230.40;228845.00;;;;5111647;28;20983;-72
2022/01/08 03:42:38;;;;;;;0.10;0.10;;;2.30;99.90;230.40;228845.00;;;;5110585;28;20609;-73
2022/01/08 03:45:08;;;;;;;0.10;0.10;;;2.30;99.90;230.40;228845.00;;;;5111540;28;20208;-73
2022/01/08 03:48:05;;;;;;;0.10;0.10;;;2.30;99.90;230.40;228845.00;;;;5110309;28;20247;-71
2022/01/08 03:50:31;;;;;;;0.10;0.10;;;2.30;99.90;230.40;228845.00;;;;5110706;28;20235;-71
2022/01/08 03:53:00;;;;;;;0.10;0.10;;;2.30;99.90;230.40;228845.00;;;;5111754;28;20295;-72
2022/01/08 03:55:28;;;;;;;0.10;0.10;;;2.40;99.90;230.40;228845.00;;;;5111613;28;20829;-72
2022/01/08 03:57:56;;;;;;;0.10;0.10;;;2.40;99.90;230.40;228845.00;;;;5118525;27;20266;-72
2022/01/08 04:00:24;;;;;;;0.10;0.10;;;2.30;99.90;230.40;228845.00;;;;5111454;28;20188;-71
2022/01/08 04:02:53;;;;;;;0.10;0.10;;;2.30;99.90;230.40;228845.00;;;;5110645;28;20300;-72
2022/01/08 04:05:21;;;;;;;0.10;0.10;;;2.40;99.90;230.40;228845.00;;;;5111424;28;20211;-72
2022/01/08 04:07:49;;;;;;;0.10;0.10;;;2.40;99.90;230.40;228845.00;;;;5110878;28;20192;-76
2022/01/08 04:10:18;;;;;;;0.10;0.10;;;2.40;99.90;230.40;228845.00;;;;5110740;28;20220;-73
2022/01/08 04:12:50;;;;;;;0.10;0.10;;;2.40;99.90;230.40;228845.00;;;;5111312;28;20212;-71
2022/01/08 04:15:34;;;;;;;0.10;0.10;;;2.30;99.90;230.40;228845.00;;;;5108386;28;20197;-71
2022/01/08 04:18:02;;;;;;;0.10;0.10;;;2.30;99.90;230.40;228845.00;;;;5110110;28;20600;-71
2022/01/08 04:20:30;;;;;;;0.10;0.10;;;2.30;99.90;230.40;228845.00;;;;5110619;28;20324;-71
2022/01/08 04:22:58;;;;;;;0.10;0.10;;;2.30;99.90;230.40;228845.00;;;;5110677;28;20212;-72
2022/01/08 04:25:28;;;;;;;0.10;0.10;;;2.30;99.90;230.40;228845.00;;;;5110800;28;20197;-72
2022/01/08 04:27:56;;;;;;;0.10;0.10;;;2.30;99.90;230.40;228845.00;;;;5109977;28;20853;-72
2022/01/08 04:30:24;;;;;;;0.10;0.10;;;2.30;99.90;230.40;228845.00;;;;5111052;28;20694;-72
2022/01/08 04:32:52;;;;;;;0.10;0.10;;;2.30;99.90;230.40;228845.00;;;;5109582;28;20238;-72
2022/01/08 04:35:20;;;;;;;0.10;0.10;;;2.30;99.90;230.40;228845.00;;;;5110983;28;20195;-72
2022/01/08 04:37:48;;;;;;;0.10;0.10;;;2.30;99.90;230.40;228845.00;;;;5110410;28;20548;-72
2022/01/08 04:40:16;;;;;;;0.10;0.10;;;2.40;99.90;230.40;228845.00;;;;5110196;28;20204;-72
2022/01/08 04:42:45;;;;;;;0.10;0.10;;;2.40;99.90;230.40;228845.00;;;;5109279;28;20212;-73
2022/01/08 04:45:13;;;;;;;0.10;0.10;;;2.40;99.90;230.40;228845.00;;;;5107887;28;20593;-72
2022/01/08 04:47:41;;;;;;;0.10;0.10;;;2.30;99.90;230.40;228845.00;;;;5108390;28;20735;-72
2022/01/08 04:50:12;;;;;;;0.10;0.10;;;2.30;99.90;230.40;228845.00;;;;5107272;28;20208;-72
2022/01/08 04:52:40;;;;;;;0.10;0.10;;;2.30;99.90;230.40;228845.00;;;;5110491;28;20228;-73
2022/01/08 04:55:09;;;;;;;0.10;0.10;;;2.40;99.90;230.40;228845.00;;;;5110021;28;20204;-73
2022/01/08 04:57:37;;;;;;;0.10;0.10;;;2.30;99.90;230.40;228845.00;;;;5110586;28;20254;-73
2022/01/08 05:00:09;;;;;;;0.20;0.20;;;2.30;99.90;230.40;228845.00;;;;5107156;28;20204;-73
2022/01/08 05:02:37;;;;;;;0.10;0.10;;;2.30;99.90;230.40;228845.00;;;;5108548;28;20247;-73
2022/01/08 05:05:07;;;;;;;0.10;0.10;;;2.30;99.90;230.40;228845.00;;;;5110220;28;20670;-73
2022/01/08 05:07:36;;;;;;;0.10;0.10;;;2.20;99.90;230.40;228845.00;;;;5109587;28;20213;-73
2022/01/08 05:10:06;;;;;;;0.10;0.10;;;2.20;99.90;230.40;228845.00;;;;5109174;28;20926;-73
2022/01/08 05:12:35;;;;;;;0.10;0.10;;;2.30;99.90;230.40;228845.00;;;;5107992;28;20218;-73
2022/01/08 05:15:04;;;;;;;0.10;0.10;;;2.20;99.90;230.40;228845.00;;;;5117592;27;20211;-73
2022/01/08 05:17:35;;;;;;;0.10;0.10;;;2.20;99.90;230.40;228845.00;;;;5108816;28;20241;-73
2022/01/08 05:20:08;;;;;;;0.10;0.10;;;2.20;99.90;230.40;228845.00;;;;5110071;28;20235;-73
2022/01/08 05:22:50;;;;;;;0.10;0.10;;;2.20;99.90;230.40;228845.00;;;;5109690;28;20622;-73
2022/01/08 05:25:21;;;;;;;0.10;0.10;;;2.20;99.90;230.40;228845.00;;;;5108967;27;20203;-74
2022/01/08 05:27:51;;;;;;;0.10;0.10;;;2.20;99.90;230.40;228845.00;;;;5109907;28;20233;-74
2022/01/08 05:30:23;;;;;;;0.10;0.10;;;2.10;99.90;230.40;228845.00;;;;5108829;28;20208;-74
2022/01/08 05:32:53;;;;;;;0.10;0.10;;;2.20;99.90;230.40;228845.00;;;;5108931;28;20454;-74
2022/01/08 05:35:24;;;;;;;0.10;0.10;;;2.10;99.90;230.40;228845.00;;;;5109264;28;20253;-74
2022/01/08 05:37:53;;;;;;;0.10;0.10;;;2.10;99.90;230.40;228845.00;;;;5109521;28;20199;-74
2022/01/08 05:40:22;;;;;;;0.10;0.10;;;2.10;99.90;230.40;228845.00;;;;5108385;28;20600;-73
2022/01/08 05:42:51;;;;;;;0.10;0.10;;;2.10;99.90;230.40;228845.00;;;;5109660;28;20226;-74
2022/01/08 05:45:19;;;;;;;0.10;0.10;;;2.10;99.90;230.40;228845.00;;;;5110039;28;20196;-73
2022/01/08 05:47:47;;;;;;;0.10;0.10;;;2.10;99.90;230.40;228845.00;;;;5108571;28;20804;-73
2022/01/08 05:50:17;;;;;;;0.10;0.10;;;2.10;99.90;230.40;228845.00;;;;5108213;28;20196;-74
2022/01/08 05:52:45;;;;;;;0.10;0.10;;;2.10;99.90;230.40;228845.00;;;;5109340;28;20760;-74
2022/01/08 05:55:13;;;;;;;0.10;0.10;;;2.20;99.90;230.40;228845.00;;;;5108519;28;20197;-73
2022/01/08 05:57:41;;;;;;;0.10;0.10;;;2.20;99.90;230.40;228845.00;;;;5105736;28;20655;-74
2022/01/08 06:00:11;;;;;;;0.10;0.10;;;2.10;99.90;230.40;228845.00;;;;5109233;28;20639;-73
2022/01/08 06:02:39;;;;;;;0.10;0.10;;;2.20;99.90;230.40;228845.00;;;;5108756;28;20216;-73
2022/01/08 06:05:09;;;;;;;0.10;0.10;;;2.20;99.90;230.40;228845.00;;;;5108381;28;20271;-73
2022/01/08 06:07:39;;;;;;;0.10;0.10;;;2.20;99.90;230.40;228845.00;;;;5109166;28;20611;-73
2022/01/08 06:10:08;;;;;;;0.10;0.10;;;2.20;99.90;230.40;228845.00;;;;5107857;28;20208;-72
2022/01/08 06:12:36;;;;;;;0.10;0.10;;;2.20;99.90;230.40;228845.00;;;;5107320;28;20228;-73
2022/01/08 06:15:05;;;;;;;0.10;0.10;;;2.20;99.90;230.40;228845.00;;;;5128769;27;20230;-72
2022/01/08 06:17:33;;;;;;;0.10;0.10;;;2.20;99.90;230.40;228845.00;;;;5111411;28;20200;-72
2022/01/08 06:20:01;;;;;;;0.10;0.10;;;2.20;99.90;230.40;228845.00;;;;5104411;28;20209;-72
2022/01/08 06:22:29;;;;;;;0.10;0.10;;;2.20;99.90;230.40;228845.00;;;;5113689;28;20299;-72
2022/01/08 06:24:58;;;;;;;0.10;0.10;;;2.30;99.90;230.40;228845.00;;;;5113671;28;20253;-72
2022/01/08 06:27:26;;;;;;;0.10;0.10;;;2.20;99.90;230.40;228845.00;;;;5111410;28;20218;-72
2022/01/08 06:29:54;;;;;;;0.10;0.10;;;2.20;99.90;230.40;228845.00;;;;5112932;28;20192;-73
2022/01/08 06:32:22;;;;;;;0.10;0.10;;;2.20;99.90;230.40;228845.00;;;;5116440;28;20220;-72
2022/01/08 06:34:50;;;;;;;0.10;0.10;;;2.30;99.90;230.40;228845.00;;;;5116935;28;20249;-73
2022/01/08 06:37:18;;;;;;;0.10;0.10;;;2.30;99.90;230.40;228845.00;;;;5116062;28;20200;-73
2022/01/08 06:39:48;;;;;;;0.10;0.10;;;2.20;99.90;230.40;228845.00;;;;5116039;28;20188;-72
2022/01/08 06:42:18;;;;;;;0.10;0.10;;;2.20;99.90;230.40;228845.00;;;;5117814;28;20250;-73
2022/01/08 06:44:46;;;;;;;0.10;0.10;;;2.20;99.90;230.40;228845.00;;;;5112474;28;20193;-73
2022/01/08 06:47:14;;;;;;;0.10;0.10;;;2.10;99.90;230.40;228845.00;;;;5112202;27;20208;-72
2022/01/08 06:49:44;;;;;;;0.10;0.10;;;2.10;99.90;230.40;228845.00;;;;5112990;27;20228;-72
2022/01/08 06:52:12;;;;;;;0.10;0.10;;;2.10;99.90;230.40;228845.00;;;;5111004;27;20273;-72
2022/01/08 06:54:40;;;;;;;0.10;0.10;;;2.00;99.90;230.40;228845.00;;;;5110945;27;20193;-77
2022/01/08 06:57:09;;;;;;;0.10;0.10;;;2.00;99.90;230.40;228845.00;;;;5112536;28;20224;-73
2022/01/08 06:59:38;;;;;;;0.10;0.10;;;2.10;99.90;230.40;228845.00;;;;5113406;28;20258;-73
2022/01/08 07:02:06;;;;;;;0.10;0.10;;;2.10;99.90;230.40;228845.00;;;;5118915;27;20220;-73
2022/01/08 07:04:34;;;;;;;0.10;0.10;;;2.10;99.90;230.40;228845.00;;;;5110252;27;20208;-73
2022/01/08 07:07:03;;;;;;;0.10;0.10;;;2.10;99.90;230.40;228845.00;;;;5108536;27;20284;-74
2022/01/08 07:09:31;;;;;;;0.10;0.10;;;2.10;99.90;230.40;228845.00;;;;5111978;28;20200;-73
2022/01/08 07:11:59;;;;;;;0.10;0.10;;;2.20;99.90;230.40;228845.00;;;;5110708;28;20246;-76
2022/01/08 07:14:27;;;;;;;0.10;0.10;;;2.20;99.90;230.40;228845.00;;;;5113536;28;20599;-74
2022/01/08 07:16:57;;;;;;;0.13;0.13;;;2.20;99.90;230.40;228845.00;;;;5112796;28;20724;-74
2022/01/08 07:19:25;;;;;;;0.10;0.10;;;2.30;99.90;230.40;228845.00;;;;5112384;28;20192;-73
2022/01/08 07:21:54;;;;;;;0.10;0.10;;;2.30;99.90;230.40;228845.00;;;;5112528;28;20302;-73
2022/01/08 07:24:22;;;;;;;0.10;0.10;;;2.20;99.90;230.40;228845.00;;;;5113276;28;20199;-73
2022/01/08 07:26:50;;;;;;;0.10;0.10;;;2.20;99.90;230.40;228845.00;;;;5111338;28;20192;-74
2022/01/08 07:29:18;;;;;;;0.10;0.10;;;2.20;99.90;230.40;228845.00;;;;5112855;28;20200;-73
2022/01/08 07:31:46;;;;;;;0.10;0.10;;;2.10;99.90;230.40;228845.00;;;;5112317;28;20269;-73
2022/01/08 07:34:15;;;;;;;0.10;0.10;;;2.10;99.90;230.40;228845.00;;;;5120097;27;20189;-73
2022/01/08 07:36:43;;;;;;;0.10;0.10;;;2.00;99.90;230.40;228845.00;;;;5113265;28;20200;-74
2022/01/08 07:39:11;;;;;;;0.10;0.10;;;2.00;99.90;230.40;228845.00;;;;5109646;28;20196;-75
2022/01/08 07:41:39;;;;;;;0.10;0.10;;;2.00;99.90;230.40;228845.00;;;;5109778;28;20880;-73
2022/01/08 07:44:07;;;;;;;0.10;0.10;;;2.10;99.90;230.40;228845.00;;;;5109278;28;20612;-75
2022/01/08 07:46:35;;;;;;;0.10;0.10;;;2.10;99.90;230.40;228845.00;;;;5110631;28;20732;-74
2022/01/08 07:49:03;;;;;;;0.10;0.10;;;2.10;99.90;230.40;228845.00;;;;5109678;28;20261;-75
2022/01/08 07:51:32;;;;;;;0.10;0.10;;;2.10;99.90;230.40;228845.00;;;;5111094;28;20236;-74
2022/01/08 07:54:00;;;;;;;0.10;0.10;;;2.10;99.90;230.40;228845.00;;;;5110984;28;20185;-74
2022/01/08 07:56:28;;;;;;;0.10;0.10;;;2.10;99.90;230.40;228845.00;;;;5111880;28;20249;-74
2022/01/08 07:58:56;;;;;;;0.10;0.10;;;2.10;99.90;230.40;228845.00;;;;5112339;28;20195;-74
2022/01/08 08:01:24;;;;;;;0.10;0.10;;;2.10;99.90;230.40;228845.00;;;;5110955;28;20196;-73
2022/01/08 08:03:53;;;;;;;0.10;0.10;;;2.10;99.90;230.40;228845.00;;;;5113456;28;20284;-74
2022/01/08 08:06:21;;;;;;;0.10;0.10;;;2.20;99.90;230.40;228845.00;;;;5110007;28;20200;-74
2022/01/08 08:08:51;;;;;;;0.10;0.10;;;2.30;99.90;230.40;228845.00;;;;5112016;28;20200;-75
2022/01/08 08:11:19;;;;;;;0.10;0.10;;;2.30;99.90;230.40;228845.00;;;;5110280;28;20200;-75
2022/01/08 08:13:47;;;;;;;0.10;0.10;;;2.40;99.90;230.40;228845.00;;;;5110972;28;20233;-74
2022/01/08 08:16:14;;;;;;;0.10;0.10;;;2.40;99.90;230.40;228845.00;;;;5111847;28;20192;-73
2022/01/08 08:18:42;;;;;;;0.10;0.10;;;2.50;99.90;230.40;228845.00;;;;5112588;28;20188;-73
2022/01/08 08:21:10;;;;;;;0.10;0.10;;;2.40;99.90;230.40;228845.00;;;;5112210;28;20462;-74
2022/01/08 08:23:38;;;;;;;0.10;0.10;;;2.40;99.90;230.40;228845.00;;;;5110574;28;20204;-73
2022/01/08 08:26:08;;;;;;;0.10;0.10;;;2.40;99.90;230.40;228845.00;;;;5112836;28;20706;-73
2022/01/08 08:28:36;;;;;;;0.10;0.10;;;2.30;99.90;230.40;228845.00;;;;5120996;28;20252;-73
2022/01/08 08:31:04;;;;;;;0.10;0.10;;;2.30;99.90;230.40;228845.00;;;;5121846;28;20196;-73
2022/01/08 08:33:32;;;;;;;0.10;0.10;;;2.40;99.90;230.40;228845.00;;;;5121466;28;20224;-74
2022/01/08 08:36:00;;;;;;;0.10;0.10;;;2.50;99.90;230.40;228845.00;;;;5120102;28;20211;-74
2022/01/08 08:38:28;;;;;;;0.10;0.10;;;2.50;99.90;230.40;228845.00;;;;5115862;28;20188;-74
2022/01/08 08:40:57;;;;;;;0.10;0.10;;;2.60;99.90;230.40;228845.00;;;;5119149;28;20205;-74
2022/01/08 08:43:26;;;;;;;0.10;0.10;;;2.60;99.90;230.40;228845.00;;;;5124208;28;20246;-73
2022/01/08 08:45:54;;;;;;;0.10;0.10;;;2.60;99.90;230.40;228845.00;;;;5127048;28;20197;-73
2022/01/08 08:48:22;;;;;;;0.10;0.10;;;2.60;99.90;230.40;228845.00;;;;5127261;28;20204;-73
2022/01/08 08:50:50;;;;;;;0.10;0.10;;;2.60;99.90;230.40;228845.00;;;;5126707;28;20214;-73
2022/01/08 08:53:18;;;;;;;0.10;0.10;;;2.50;99.90;230.40;228845.00;;;;5121001;28;20829;-73
2022/01/08 08:55:48;;;;;;;0.10;0.10;;;2.50;99.90;230.40;228845.00;;;;5117158;28;20189;-74
2022/01/08 08:58:16;;;;;;;0.10;0.10;;;2.50;99.90;230.40;228845.00;;;;5111612;28;20202;-74
2022/01/08 09:00:45;;;;;;;0.10;0.10;;;2.60;99.90;230.40;228845.00;;;;5108694;28;20562;-74
2022/01/08 09:03:13;;;;;;;0.10;0.10;;;2.60;99.90;230.40;228845.00;;;;5110538;28;20220;-74
2022/01/08 09:05:42;;;;;;;0.10;0.10;;;2.60;99.90;230.40;228845.00;;;;5110141;28;20192;-74
2022/01/08 09:08:10;;;;;;;0.10;0.10;;;2.60;99.90;230.40;228845.00;;;;5106872;28;20208;-74
2022/01/08 09:10:38;;;;;;;0.10;0.10;;;2.60;99.90;230.40;228845.00;;;;5110911;28;20193;-74
2022/01/08 09:13:06;;;;;;;0.10;0.10;;;2.60;99.90;230.40;228845.00;;;;5110523;28;20204;-74
2022/01/08 09:15:37;;;;;;;0.10;0.10;;;2.60;99.90;230.40;228845.00;;;;5110569;28;20257;-74
2022/01/08 09:18:07;;;;;;;0.10;0.10;;;2.50;99.90;230.40;228845.00;;;;5109853;28;20188;-73
2022/01/08 09:20:37;;;;;;;0.10;0.10;;;2.60;99.90;230.40;228845.00;;;;5110757;28;20192;-74
2022/01/08 09:23:06;;;;;;;0.10;0.10;;;2.60;99.90;230.40;228845.00;;;;5108465;28;20208;-74
2022/01/08 09:25:34;;;;;;;0.10;0.10;;;2.60;99.90;230.40;228845.00;;;;5110057;28;20253;-74
2022/01/08 09:28:03;;;;;;;0.10;0.10;;;2.60;99.90;230.40;228845.00;;;;5109386;28;20664;-74
2022/01/08 09:30:31;;;;;;;0.10;0.10;;;2.60;99.90;230.40;228845.00;;;;5109719;28;20712;-74
2022/01/08 09:32:59;;;;;;;0.10;0.10;;;2.70;99.90;230.40;228845.00;;;;5117321;27;20217;-74
2022/01/08 09:35:28;;;;;;;0.10;0.10;;;2.70;99.90;230.40;228845.00;;;;5110152;28;20241;-74
2022/01/08 09:37:57;;;;;;;0.10;0.10;;;2.80;99.90;230.40;228845.00;;;;5110968;28;20188;-74
2022/01/08 09:40:25;;;;;;;0.10;0.10;;;2.80;99.90;230.40;228845.00;;;;5107238;28;20261;-74
2022/01/08 09:42:53;;;;;;;0.10;0.10;;;2.80;99.90;230.40;228845.00;;;;5109276;28;20220;-74
2022/01/08 09:45:21;;;;;;;0.10;0.10;;;2.90;99.90;230.40;228845.00;;;;5109994;28;20196;-74
2022/01/08 09:47:49;;;;;;;0.10;0.10;;;2.90;99.90;230.40;228845.00;;;;5108775;28;20238;-74
2022/01/08 09:50:18;;;;;;;0.10;0.10;;;2.90;99.90;230.40;228845.00;;;;5109525;28;20203;-74
2022/01/08 09:52:47;;;;;;;0.10;0.10;;;2.90;99.90;230.40;228845.00;;;;5108885;28;20336;-74
2022/01/08 09:55:15;;;;;;;0.10;0.10;;;2.90;99.90;230.40;228845.00;;;;5106681;28;20197;-75
2022/01/08 09:57:43;;;;;;;0.10;0.10;;;3.00;99.90;230.40;228845.00;;;;5109284;28;20550;-75
2022/01/08 10:00:14;;;;;;;0.10;0.10;;;3.00;99.90;230.40;228845.00;;;;5109702;28;20200;-75
2022/01/08 10:02:44;;;;;;;0.10;0.10;;;2.90;99.90;230.40;228845.00;;;;5109919;28;20215;-74
2022/01/08 10:05:15;;;;;;;0.10;0.10;;;2.90;99.90;230.40;228845.00;;;;5109318;28;20697;-75
2022/01/08 10:07:59;;;;;;;0.10;0.10;;;2.90;99.90;230.40;228845.00;;;;5107757;28;20735;-74
2022/01/08 10:10:28;;;;;;;0.10;0.10;;;3.00;99.90;230.40;228845.00;;;;5109056;28;20192;-74
2022/01/08 10:13:00;;;;;;;0.10;0.10;;;3.00;99.90;230.40;228845.00;;;;5108824;28;20903;-73
2022/01/08 10:18:24;;;;;;;0.10;0.10;;;3.00;99.90;230.40;228845.00;;;;5109618;28;20200;-73
2022/01/08 10:20:55;;;;;;;0.10;0.10;;;3.00;99.90;230.40;228845.00;;;;5107766;28;20200;-73
2022/01/08 10:23:27;;;;;;;0.10;0.10;;;3.00;99.90;230.40;228845.00;;;;5108833;28;20220;-73
2022/01/08 10:26:02;;;;;;;0.10;0.10;;;2.90;99.90;230.40;228845.00;;;;5108167;28;20549;-73
2022/01/08 10:28:41;;;;;;;0.10;0.10;;;3.00;99.90;230.40;228845.00;;;;5107973;28;20576;-74
2022/01/08 10:31:25;;;;;;;0.10;0.10;;;3.00;99.90;230.40;228845.00;;;;5107579;28;20191;-73
2022/01/08 10:34:04;;;;;;;0.10;0.10;;;3.10;99.90;230.40;228845.00;;;;5107270;28;20228;-74
2022/01/08 10:36:35;;;;;;;0.10;0.10;;;3.10;99.90;230.40;228845.00;;;;5106409;28;20196;-73
2022/01/08 10:39:08;;;;;;;0.10;0.10;;;3.00;99.90;230.40;228845.00;;;;5108708;28;20200;-73
2022/01/08 10:41:42;;;;;;;0.10;0.10;;;3.00;99.90;230.40;228845.00;;;;5110023;28;20254;-73
2022/01/08 10:44:14;;;;;;;0.10;0.10;;;3.10;99.90;230.40;228845.00;;;;5111801;28;20218;-73
2022/01/08 10:46:47;;;;;;;0.10;0.10;;;3.10;99.90;230.40;228845.00;;;;5110257;28;20275;-74
2022/01/08 10:49:18;;;;;;;0.10;0.10;;;3.10;99.90;230.40;228845.00;;;;5110684;28;20701;-74
2022/01/08 10:51:46;;;;;;;0.10;0.10;;;3.10;99.90;230.40;228845.00;;;;5109872;28;20232;-74
2022/01/08 10:54:15;;;;;;;0.10;0.10;;;3.20;99.90;230.40;228845.00;;;;5105691;28;20224;-74
2022/01/08 10:56:46;;;;;;;0.10;0.10;;;3.20;99.90;230.40;228845.00;;;;5109066;28;20241;-74
2022/01/08 10:59:19;;;;;;;0.10;0.10;;;3.20;99.90;230.40;228845.00;;;;5107753;28;20196;-74
2022/01/08 11:01:56;;;;;;;0.10;0.10;;;3.20;99.90;230.40;228845.00;;;;5110718;28;20266;-74
2022/01/08 11:04:51;;;;;;;0.10;0.10;;;3.20;99.90;230.40;228845.00;;;;5111711;28;20211;-74
2022/01/08 11:07:21;;;;;;;0.10;0.10;;;3.10;99.90;230.40;228845.00;;;;5098097;28;20215;-74
2022/01/08 11:09:53;;;;;;;0.10;0.10;;;3.20;99.90;230.40;228845.00;;;;5112777;28;20200;-74
2022/01/08 11:12:27;;;;;;;0.10;0.10;;;3.20;99.90;230.40;228845.00;;;;5112915;28;20265;-74
2022/01/08 11:15:23;;;;;;;0.10;0.10;;;3.10;99.90;230.40;228845.00;;;;5112354;28;20222;-74
2022/01/08 11:17:54;;;;;;;0.10;0.10;;;3.10;99.90;230.40;228845.00;;;;5112242;28;20192;-74